Time;durP1;ratioP1;P1;durP2;ratioP2;P2;SDS_P1;SDS_P2;PMS_P1;PMS_P2;Temp;Humidity;BMP_temperature;BMP_pressure;BME280_temperature;BME280_humidity;BME280_pressure;Samples;Min_cycle;Max_cycle;Signal;HPM_P1;HPM_P2
2022/10/09 00:00:46;;;;;;;10.10;3.28;;;8.30;99.90;;;;;;4868075;29;20061;-86
2022/10/09 00:03:13;;;;;;;7.15;3.30;;;8.40;99.90;;;;;;4859875;29;20153;-85
2022/10/09 00:05:39;;;;;;;9.82;3.05;;;8.40;99.90;;;;;;4882197;29;20033;-86
2022/10/09 00:08:05;;;;;;;10.98;3.40;;;8.30;99.90;;;;;;4884691;29;20055;-86
2022/10/09 00:10:31;;;;;;;10.13;3.08;;;8.30;99.90;;;;;;4897140;29;20350;-85
2022/10/09 00:12:57;;;;;;;7.60;3.30;;;8.40;99.90;;;;;;4869730;29;20147;-86
2022/10/09 00:15:25;;;;;;;8.23;2.90;;;8.50;99.90;;;;;;4878767;29;20082;-86
2022/10/09 00:17:51;;;;;;;8.57;3.00;;;8.40;99.90;;;;;;4874915;29;20121;-86
2022/10/09 00:20:17;;;;;;;13.90;3.15;;;8.30;99.90;;;;;;4872649;29;20045;-86
2022/10/09 00:22:43;;;;;;;10.25;2.85;;;8.30;99.90;;;;;;4884508;29;20041;-85
2022/10/09 00:25:09;;;;;;;10.43;2.85;;;8.30;99.90;;;;;;4867013;29;20028;-85
2022/10/09 00:27:35;;;;;;;7.30;3.65;;;8.30;99.90;;;;;;4896169;29;20076;-86
2022/10/09 00:30:01;;;;;;;12.95;3.22;;;8.20;99.90;;;;;;4886788;29;20119;-86
2022/10/09 00:32:26;;;;;;;11.43;4.18;;;8.30;99.90;;;;;;4896985;29;20177;-86
2022/10/09 00:34:52;;;;;;;11.48;3.30;;;8.20;99.90;;;;;;4851952;29;20064;-87
2022/10/09 00:37:18;;;;;;;7.82;3.08;;;8.30;99.90;;;;;;4884442;29;20582;-86
2022/10/09 00:39:43;;;;;;;15.15;3.47;;;8.20;99.90;;;;;;4867589;29;20056;-86
2022/10/09 00:42:11;;;;;;;11.13;3.83;;;8.10;99.90;;;;;;4880463;29;20116;-85
2022/10/09 00:44:50;;;;;;;11.43;3.33;;;8.30;99.90;;;;;;4880111;29;20101;-86
2022/10/09 00:47:24;;;;;;;12.77;4.38;;;8.20;99.90;;;;;;4864159;29;20049;-86
2022/10/09 00:49:59;;;;;;;13.23;3.90;;;8.20;99.90;;;;;;4862250;29;20258;-86
2022/10/09 00:52:25;;;;;;;9.30;3.35;;;8.20;99.90;;;;;;4882588;29;20048;-86
2022/10/09 00:54:52;;;;;;;9.13;3.70;;;8.20;99.90;;;;;;4868354;29;20052;-86
2022/10/09 00:57:18;;;;;;;10.50;4.18;;;8.20;99.90;;;;;;4855016;29;20084;-86
2022/10/09 00:59:44;;;;;;;13.07;4.03;;;8.20;99.90;;;;;;4863160;29;20049;-86
2022/10/09 01:02:10;;;;;;;15.15;4.45;;;8.00;99.90;;;;;;4866901;29;20104;-86
2022/10/09 01:04:36;;;;;;;13.32;4.20;;;8.10;99.90;;;;;;4897042;29;20048;-86
2022/10/09 01:07:20;;;;;;;12.27;4.55;;;8.00;99.90;;;;;;4867443;29;20056;-85
2022/10/09 01:09:58;;;;;;;10.07;3.92;;;8.00;99.90;;;;;;4856150;29;20781;-86
2022/10/09 01:12:53;;;;;;;12.77;4.38;;;8.00;99.90;;;;;;4881198;29;20093;-86
2022/10/09 01:15:43;;;;;;;8.57;4.20;;;7.80;99.90;;;;;;4879939;29;20108;-86
2022/10/09 01:18:31;;;;;;;10.05;4.22;;;8.00;99.90;;;;;;4895195;29;20092;-86
2022/10/09 01:21:17;;;;;;;12.43;4.40;;;8.00;99.90;;;;;;4865993;29;20236;-85
2022/10/09 01:24:04;;;;;;;12.40;4.45;;;7.80;99.90;;;;;;4879756;29;20541;-86
2022/10/09 01:27:01;;;;;;;13.07;4.80;;;7.80;99.90;;;;;;4866836;29;20389;-86
2022/10/09 01:29:41;;;;;;;13.20;4.90;;;7.80;99.90;;;;;;4877506;29;20765;-86
2022/10/09 01:32:10;;;;;;;12.65;5.20;;;7.90;99.90;;;;;;4878810;29;20036;-86
2022/10/09 01:34:38;;;;;;;10.40;4.95;;;7.90;99.90;;;;;;4881663;29;20051;-86
2022/10/09 01:37:06;;;;;;;17.73;4.72;;;7.90;99.90;;;;;;4882522;29;20131;-85
2022/10/09 01:39:34;;;;;;;12.07;4.72;;;7.80;99.90;;;;;;4886280;29;20051;-85
2022/10/09 01:42:00;;;;;;;14.02;5.22;;;7.80;99.90;;;;;;4881214;29;20409;-86
2022/10/09 01:44:31;;;;;;;12.05;4.53;;;7.70;99.90;;;;;;4863968;29;20048;-86
2022/10/09 01:46:58;;;;;;;12.10;4.82;;;7.70;99.90;;;;;;4895157;29;20049;-86
2022/10/09 01:49:58;;;;;;;9.02;5.15;;;7.60;99.90;;;;;;4882010;29;20064;-86
2022/10/09 01:52:58;;;;;;;12.27;4.88;;;7.60;99.90;;;;;;4868501;29;20052;-86
2022/10/09 01:55:27;;;;;;;13.75;4.72;;;7.60;99.90;;;;;;4884477;29;20097;-86
2022/10/09 01:58:14;;;;;;;14.15;4.90;;;7.60;99.90;;;;;;4878035;29;20374;-86
2022/10/09 02:00:46;;;;;;;13.50;5.25;;;7.60;99.90;;;;;;4846679;29;20053;-86
2022/10/09 02:03:15;;;;;;;14.43;6.13;;;7.50;99.90;;;;;;4867696;29;20052;-85
2022/10/09 02:05:42;;;;;;;11.13;5.60;;;7.60;99.90;;;;;;4852552;29;20052;-86
2022/10/09 02:08:12;;;;;;;12.40;5.75;;;7.50;99.90;;;;;;4881461;29;20048;-86
2022/10/09 02:10:41;;;;;;;15.63;5.90;;;7.50;99.90;;;;;;4885429;29;20040;-86
2022/10/09 02:13:09;;;;;;;9.88;5.20;;;7.50;99.90;;;;;;4865071;29;20036;-85
2022/10/09 02:16:02;;;;;;;11.23;5.88;;;7.40;99.90;;;;;;4883127;29;20344;-86
2022/10/09 02:18:41;;;;;;;9.90;4.90;;;7.50;99.90;;;;;;4882976;29;20108;-86
2022/10/09 02:21:22;;;;;;;13.38;5.22;;;7.50;99.90;;;;;;4887170;29;20045;-86
2022/10/09 02:23:49;;;;;;;17.25;6.03;;;7.40;99.90;;;;;;4885292;29;20063;-86
2022/10/09 02:26:16;;;;;;;15.07;5.50;;;7.50;99.90;;;;;;4885357;29;20389;-86
2022/10/09 02:28:43;;;;;;;11.43;5.32;;;7.50;99.90;;;;;;4882108;29;20072;-86
2022/10/09 02:31:12;;;;;;;12.50;6.22;;;7.50;99.90;;;;;;4851684;29;20052;-86
2022/10/09 02:33:38;;;;;;;8.82;5.57;;;7.50;99.90;;;;;;4869509;29;20075;-86
2022/10/09 02:36:04;;;;;;;13.15;5.95;;;7.40;99.90;;;;;;4880840;29;20045;-86
2022/10/09 02:38:29;;;;;;;14.00;5.38;;;7.40;99.90;;;;;;4886504;29;20107;-86
2022/10/09 02:41:01;;;;;;;9.40;5.60;;;7.30;99.90;;;;;;4884453;29;20153;-86
2022/10/09 02:43:28;;;;;;;12.32;6.05;;;7.30;99.90;;;;;;4882010;29;20075;-86
2022/10/09 02:45:53;;;;;;;12.05;5.57;;;7.30;99.90;;;;;;4850289;29;20467;-85
2022/10/09 02:48:20;;;;;;;11.38;6.47;;;7.20;99.90;;;;;;4867619;29;20322;-86
2022/10/09 02:50:45;;;;;;;14.30;6.57;;;7.30;99.90;;;;;;4886325;29;20119;-85
2022/10/09 02:53:11;;;;;;;13.23;6.00;;;7.30;99.90;;;;;;4879129;29;20129;-86
2022/10/09 02:55:36;;;;;;;15.20;7.38;;;7.30;99.90;;;;;;4884648;29;20060;-86
2022/10/09 02:58:03;;;;;;;14.38;7.07;;;7.30;99.90;;;;;;4881240;29;20197;-85
2022/10/09 03:00:28;;;;;;;16.65;7.57;;;7.20;99.90;;;;;;4883880;29;20171;-86
2022/10/09 03:02:54;;;;;;;10.95;6.65;;;7.30;99.90;;;;;;4883345;29;20570;-85
2022/10/09 03:05:20;;;;;;;14.57;6.80;;;7.30;99.90;;;;;;4888254;29;20096;-86
2022/10/09 03:07:50;;;;;;;14.63;7.35;;;7.20;99.90;;;;;;4888992;29;20048;-85
2022/10/09 03:10:17;;;;;;;12.05;6.95;;;7.30;99.90;;;;;;4896591;29;20058;-86
2022/10/09 03:12:43;;;;;;;14.73;6.75;;;7.10;99.90;;;;;;4885998;29;20029;-86
2022/10/09 03:15:10;;;;;;;13.93;7.63;;;7.20;99.90;;;;;;4885482;29;20453;-85
2022/10/09 03:17:36;;;;;;;17.63;7.22;;;7.20;99.90;;;;;;4884274;29;20398;-86
2022/10/09 03:20:05;;;;;;;15.18;7.68;;;7.20;99.90;;;;;;4882316;29;20037;-86
2022/10/09 03:22:31;;;;;;;14.77;7.80;;;7.10;99.90;;;;;;4870186;29;20544;-85
2022/10/09 03:24:56;;;;;;;18.45;7.72;;;7.20;99.90;;;;;;4885515;29;20044;-86
2022/10/09 03:27:22;;;;;;;16.92;7.63;;;7.10;99.90;;;;;;4855580;29;20437;-86
2022/10/09 03:29:51;;;;;;;15.25;7.53;;;7.20;99.90;;;;;;4885547;29;20063;-86
2022/10/09 03:32:16;;;;;;;19.15;8.38;;;7.10;99.90;;;;;;4867741;29;20497;-86
2022/10/09 03:34:42;;;;;;;81.60;10.75;;;7.10;99.90;;;;;;4852673;29;20039;-86
2022/10/09 03:37:07;;;;;;;14.32;8.90;;;7.00;99.90;;;;;;4867591;29;20037;-86
2022/10/09 03:39:33;;;;;;;16.23;8.38;;;7.00;99.90;;;;;;4899541;29;20336;-86
2022/10/09 03:41:59;;;;;;;14.77;8.27;;;6.90;99.90;;;;;;4881345;29;20687;-86
2022/10/09 03:44:24;;;;;;;18.48;8.68;;;7.00;99.90;;;;;;4854357;29;20055;-86
2022/10/09 03:46:51;;;;;;;14.48;8.77;;;7.00;99.90;;;;;;4850829;29;20136;-86
2022/10/09 03:49:17;;;;;;;17.08;8.82;;;7.00;99.90;;;;;;4886746;29;20059;-86
2022/10/09 03:51:42;;;;;;;15.82;8.80;;;7.00;99.90;;;;;;4881025;29;20053;-86
2022/10/09 03:54:08;;;;;;;17.58;9.20;;;7.00;99.90;;;;;;4868117;29;20075;-86
2022/10/09 03:56:34;;;;;;;22.40;9.48;;;6.90;99.90;;;;;;4896306;29;20123;-86
2022/10/09 03:58:59;;;;;;;19.13;10.23;;;6.90;99.90;;;;;;4885749;29;20063;-86
2022/10/09 04:01:25;;;;;;;17.88;9.60;;;7.00;99.90;;;;;;4862609;29;20064;-87
2022/10/09 04:03:51;;;;;;;17.13;9.38;;;6.90;99.90;;;;;;4867303;29;20171;-86
2022/10/09 04:06:16;;;;;;;18.05;9.65;;;6.90;99.90;;;;;;4879986;29;20032;-86
2022/10/09 04:08:45;;;;;;;18.45;10.23;;;6.80;99.90;;;;;;4862874;29;20072;-86
2022/10/09 04:11:10;;;;;;;22.70;9.90;;;6.90;99.90;;;;;;4857404;29;20048;-86
2022/10/09 04:13:36;;;;;;;21.90;11.32;;;6.80;99.90;;;;;;4869897;29;20055;-85
2022/10/09 04:16:02;;;;;;;16.73;9.30;;;6.80;99.90;;;;;;4864717;29;20044;-85
2022/10/09 04:18:27;;;;;;;18.88;8.93;;;6.70;99.90;;;;;;4896587;29;20619;-86
2022/10/09 04:20:55;;;;;;;15.85;8.82;;;6.80;99.90;;;;;;4867825;29;20055;-85
2022/10/09 04:23:25;;;;;;;16.10;9.68;;;6.80;99.90;;;;;;4851565;29;20045;-86
2022/10/09 04:25:59;;;;;;;12.50;8.60;;;6.60;99.90;;;;;;4852168;29;20041;-85
2022/10/09 04:28:29;;;;;;;14.20;8.93;;;6.60;99.90;;;;;;4865242;29;20402;-86
2022/10/09 04:30:58;;;;;;;14.40;8.40;;;6.60;99.90;;;;;;4881140;29;20421;-85
2022/10/09 04:33:25;;;;;;;14.10;9.07;;;6.60;99.90;;;;;;4881704;29;20045;-86
2022/10/09 04:35:53;;;;;;;17.13;9.50;;;6.60;99.90;;;;;;4864541;29;20093;-85
2022/10/09 04:38:23;;;;;;;16.05;9.65;;;6.50;99.90;;;;;;4896378;29;20037;-85
2022/10/09 04:41:00;;;;;;;16.65;9.65;;;6.50;99.90;;;;;;4883203;29;20281;-86
2022/10/09 04:43:26;;;;;;;14.05;9.20;;;6.60;99.90;;;;;;4879669;29;20401;-86
2022/10/09 04:45:52;;;;;;;15.82;9.32;;;6.50;99.90;;;;;;4859334;29;20052;-85
2022/10/09 04:48:18;;;;;;;19.40;11.00;;;6.60;99.90;;;;;;4863349;29;20040;-86
2022/10/09 04:50:43;;;;;;;18.80;9.75;;;6.50;99.90;;;;;;4849811;29;20109;-86
2022/10/09 04:53:09;;;;;;;16.42;10.15;;;6.40;99.90;;;;;;4872135;29;20556;-85
2022/10/09 04:55:39;;;;;;;17.67;10.40;;;6.50;99.90;;;;;;4853108;29;20143;-86
2022/10/09 04:58:05;;;;;;;17.83;10.20;;;6.40;99.90;;;;;;4853544;29;20521;-86
2022/10/09 05:00:31;;;;;;;16.75;10.02;;;6.50;99.90;;;;;;4881066;29;20064;-85
2022/10/09 05:02:56;;;;;;;20.30;10.77;;;6.50;99.90;;;;;;4852386;29;20044;-86
2022/10/09 05:05:22;;;;;;;22.83;11.55;;;6.50;99.90;;;;;;4869421;29;20400;-85
2022/10/09 05:07:48;;;;;;;19.88;12.02;;;6.40;99.90;;;;;;4848683;29;20049;-86
2022/10/09 05:10:13;;;;;;;21.52;10.70;;;6.50;99.90;;;;;;4862728;29;20068;-86
2022/10/09 05:12:39;;;;;;;19.45;10.73;;;6.40;99.90;;;;;;4869398;29;20184;-86
2022/10/09 05:15:05;;;;;;;18.08;7.70;;;6.40;99.90;;;;;;4864693;29;20056;-86
2022/10/09 05:17:31;;;;;;;10.68;6.68;;;6.30;99.90;;;;;;4856111;29;20442;-86
2022/10/09 05:19:57;;;;;;;16.98;7.70;;;6.30;99.90;;;;;;4894125;29;20133;-85
2022/10/09 05:22:22;;;;;;;10.63;6.78;;;6.30;99.90;;;;;;4876345;29;20193;-85
2022/10/09 05:24:50;;;;;;;12.88;7.82;;;6.20;99.90;;;;;;4894208;29;20041;-85
2022/10/09 05:27:16;;;;;;;15.60;7.90;;;6.20;99.90;;;;;;4863732;29;20436;-86
2022/10/09 05:29:42;;;;;;;15.38;8.73;;;6.20;99.90;;;;;;4866475;29;20041;-86
2022/10/09 05:32:07;;;;;;;13.02;8.27;;;6.20;99.90;;;;;;4856736;29;20466;-85
2022/10/09 05:34:34;;;;;;;13.82;8.13;;;6.30;99.90;;;;;;4871237;29;20077;-86
2022/10/09 05:37:00;;;;;;;16.75;8.27;;;6.20;99.90;;;;;;4878555;29;20115;-85
2022/10/09 05:39:25;;;;;;;15.70;7.78;;;6.20;99.90;;;;;;4898010;29;20632;-86
2022/10/09 05:41:53;;;;;;;15.13;8.07;;;6.30;99.90;;;;;;4892714;29;20133;-85
2022/10/09 05:44:19;;;;;;;14.18;7.75;;;6.20;99.90;;;;;;4892439;29;20033;-86
2022/10/09 05:46:45;;;;;;;13.38;7.43;;;6.30;99.90;;;;;;4881645;29;20481;-85
2022/10/09 05:49:11;;;;;;;13.57;7.90;;;6.20;99.90;;;;;;4881952;29;20600;-85
2022/10/09 05:51:41;;;;;;;17.40;8.60;;;6.20;99.90;;;;;;4867591;29;20413;-85
2022/10/09 05:54:11;;;;;;;15.88;9.90;;;6.20;99.90;;;;;;4883280;29;20454;-86
2022/10/09 05:56:37;;;;;;;19.73;10.25;;;6.20;99.90;;;;;;4869693;29;20485;-86
2022/10/09 05:59:08;;;;;;;19.02;11.20;;;6.30;99.90;;;;;;4896864;29;20045;-85
2022/10/09 06:01:36;;;;;;;19.42;11.88;;;6.20;99.90;;;;;;4879184;29;20129;-87
2022/10/09 06:04:03;;;;;;;20.38;12.18;;;6.30;99.90;;;;;;4879080;29;20539;-85
2022/10/09 06:06:30;;;;;;;26.23;13.70;;;6.30;99.90;;;;;;4866653;29;20049;-85
2022/10/09 06:08:57;;;;;;;21.65;12.88;;;6.40;99.90;;;;;;4867946;29;20436;-85
2022/10/09 06:11:30;;;;;;;22.52;11.73;;;6.40;99.90;;;;;;4863250;29;20048;-86
2022/10/09 06:13:57;;;;;;;22.63;13.23;;;6.30;99.90;;;;;;4851313;29;20150;-86
2022/10/09 06:16:26;;;;;;;25.23;13.55;;;6.40;99.90;;;;;;4829217;29;20053;-86
2022/10/09 06:18:53;;;;;;;25.63;14.57;;;6.30;99.90;;;;;;4877463;29;20461;-86
2022/10/09 06:21:19;;;;;;;78.40;19.55;;;6.40;99.90;;;;;;4868017;29;21072;-86
2022/10/09 06:23:51;;;;;;;23.42;13.73;;;6.40;99.90;;;;;;4863495;29;20290;-85
2022/10/09 06:26:18;;;;;;;29.75;16.30;;;6.30;99.90;;;;;;4836700;29;20389;-86
2022/10/09 06:28:44;;;;;;;26.55;15.82;;;6.30;99.90;;;;;;4851058;29;20113;-85
2022/10/09 06:31:13;;;;;;;26.02;14.77;;;6.50;99.90;;;;;;4859423;29;20046;-85
2022/10/09 06:33:40;;;;;;;24.65;15.65;;;6.50;99.90;;;;;;4871350;29;20435;-85
2022/10/09 06:36:12;;;;;;;31.15;16.23;;;6.50;99.90;;;;;;4865383;29;20036;-86
2022/10/09 06:38:39;;;;;;;24.92;14.48;;;6.50;99.90;;;;;;4866585;29;20124;-86
2022/10/09 06:41:08;;;;;;;26.52;15.00;;;6.60;99.90;;;;;;4849460;29;20037;-86
2022/10/09 06:43:33;;;;;;;21.42;13.45;;;6.60;99.90;;;;;;4877075;29;20433;-86
2022/10/09 06:46:04;;;;;;;21.52;12.18;;;6.70;99.90;;;;;;4829757;29;20088;-86
2022/10/09 06:48:30;;;;;;;19.35;10.93;;;6.70;99.90;;;;;;4865082;29;20130;-86
2022/10/09 06:51:03;;;;;;;20.60;9.75;;;6.90;99.90;;;;;;4852474;29;20053;-85
2022/10/09 06:53:32;;;;;;;19.40;10.77;;;7.00;99.90;;;;;;4880236;29;20528;-86
2022/10/09 06:55:58;;;;;;;17.33;10.35;;;7.10;99.90;;;;;;4854061;29;20105;-86
2022/10/09 06:58:24;;;;;;;20.38;10.30;;;7.10;99.90;;;;;;4851913;29;20513;-86
2022/10/09 07:01:00;;;;;;;21.42;9.95;;;7.20;99.90;;;;;;4863706;29;20144;-85
2022/10/09 07:03:25;;;;;;;16.40;9.25;;;7.30;99.90;;;;;;4864603;29;20045;-85
2022/10/09 07:05:53;;;;;;;14.82;8.90;;;7.30;99.90;;;;;;4876571;29;20041;-86
2022/10/09 07:08:22;;;;;;;16.67;9.90;;;7.50;99.90;;;;;;4877385;29;20045;-85
2022/10/09 07:10:47;;;;;;;21.52;9.23;;;7.50;99.90;;;;;;4869429;29;20128;-85
2022/10/09 07:13:13;;;;;;;18.60;9.60;;;7.70;99.90;;;;;;4864220;29;20564;-86
2022/10/09 07:15:45;;;;;;;18.05;8.80;;;7.70;99.90;;;;;;4878156;29;20056;-86
2022/10/09 07:18:10;;;;;;;13.63;8.68;;;7.70;99.90;;;;;;4864027;29;20041;-86
2022/10/09 07:20:36;;;;;;;12.65;9.07;;;7.90;99.90;;;;;;4876847;29;20398;-87
2022/10/09 07:23:04;;;;;;;13.90;8.60;;;7.90;99.90;;;;;;4864657;29;20049;-86
2022/10/09 07:25:31;;;;;;;17.73;8.73;;;8.00;99.90;;;;;;4849138;29;20053;-86
2022/10/09 07:27:56;;;;;;;12.63;8.25;;;8.10;99.90;;;;;;4863148;29;20120;-86
2022/10/09 07:30:22;;;;;;;13.23;8.75;;;8.30;99.90;;;;;;4863932;29;20810;-86
2022/10/09 07:32:50;;;;;;;15.77;8.52;;;8.30;99.90;;;;;;4865078;29;20056;-86
2022/10/09 07:35:19;;;;;;;13.95;8.32;;;8.40;99.90;;;;;;4877893;29;20431;-86
2022/10/09 07:38:03;;;;;;;13.57;8.40;;;8.50;99.90;;;;;;4879048;29;20045;-86
2022/10/09 07:40:32;;;;;;;14.68;8.30;;;8.60;99.90;;;;;;4877940;29;20084;-86
2022/10/09 07:42:58;;;;;;;14.23;8.88;;;8.60;99.90;;;;;;4862974;29;20044;-86
2022/10/09 07:45:23;;;;;;;12.65;8.50;;;8.70;99.90;;;;;;4863823;29;20037;-86
2022/10/09 07:47:49;;;;;;;16.88;8.60;;;8.80;99.90;;;;;;4874893;29;20050;-86
2022/10/09 07:50:15;;;;;;;13.48;8.63;;;9.00;99.90;;;;;;4863665;29;20060;-86
2022/10/09 07:52:40;;;;;;;13.70;8.80;;;9.10;99.90;;;;;;4850248;29;20497;-87
2022/10/09 07:55:12;;;;;;;13.13;8.00;;;9.00;99.90;;;;;;4877987;29;20045;-87
2022/10/09 07:57:38;;;;;;;12.05;8.23;;;9.20;99.90;;;;;;4851368;29;20488;-85
2022/10/09 08:00:05;;;;;;;13.77;8.23;;;9.30;99.90;;;;;;4848447;29;20151;-86
2022/10/09 08:02:32;;;;;;;10.32;8.10;;;9.40;99.90;;;;;;4885006;29;20105;-86
2022/10/09 08:05:01;;;;;;;14.70;8.65;;;9.40;99.90;;;;;;4870761;29;20450;-86
2022/10/09 08:07:27;;;;;;;12.20;7.47;;;9.60;99.90;;;;;;4881484;29;20164;-86
2022/10/09 08:09:52;;;;;;;11.93;8.45;;;9.60;99.90;;;;;;4868801;29;20124;-86
2022/10/09 08:12:18;;;;;;;12.05;7.97;;;9.80;99.90;;;;;;4896304;29;20165;-85
2022/10/09 08:14:47;;;;;;;11.95;7.72;;;9.90;99.90;;;;;;4881131;29;20108;-86
2022/10/09 08:17:17;;;;;;;12.27;7.50;;;10.00;99.90;;;;;;4864935;29;20257;-86
2022/10/09 08:19:43;;;;;;;12.30;7.85;;;10.00;99.90;;;;;;4864949;29;20730;-86
2022/10/09 08:22:10;;;;;;;10.10;7.35;;;10.10;99.90;;;;;;4895158;29;20148;-86
2022/10/09 08:24:36;;;;;;;9.75;7.18;;;10.20;99.90;;;;;;4879813;29;20489;-86
2022/10/09 08:27:01;;;;;;;11.30;7.43;;;10.30;99.90;;;;;;4865590;29;20045;-86
2022/10/09 08:29:27;;;;;;;11.93;6.65;;;10.30;99.90;;;;;;4884797;29;20104;-86
2022/10/09 08:31:53;;;;;;;12.48;6.95;;;10.40;99.90;;;;;;4882286;29;20104;-86
2022/10/09 08:34:21;;;;;;;11.65;6.57;;;10.50;99.90;;;;;;4869746;29;20420;-86
2022/10/09 08:36:47;;;;;;;13.60;6.80;;;10.50;99.90;;;;;;4896935;29;20413;-86
2022/10/09 08:39:13;;;;;;;14.38;6.75;;;10.70;99.90;;;;;;4881168;29;20049;-87
2022/10/09 08:41:52;;;;;;;10.35;6.10;;;10.70;99.90;;;;;;4894605;29;20438;-86
2022/10/09 08:44:24;;;;;;;15.90;6.45;;;10.90;99.90;;;;;;4898732;29;20072;-86
2022/10/09 08:47:15;;;;;;;10.73;5.80;;;11.00;99.90;;;;;;4880811;29;20045;-86
2022/10/09 08:49:48;;;;;;;10.48;5.57;;;11.10;99.90;;;;;;4869440;29;20052;-86
2022/10/09 08:52:46;;;;;;;9.48;5.78;;;11.10;99.90;;;;;;4886074;29;20239;-86
2022/10/09 08:55:25;;;;;;;14.55;6.53;;;11.10;99.90;;;;;;4896541;29;20412;-85
2022/10/09 08:57:54;;;;;;;14.85;5.78;;;11.20;99.90;;;;;;4882930;29;20044;-87
2022/10/09 09:00:32;;;;;;;13.10;5.63;;;11.30;99.90;;;;;;4863933;29;20136;-86
2022/10/09 09:03:01;;;;;;;12.00;5.72;;;11.40;99.90;;;;;;4863558;29;20507;-86
2022/10/09 09:05:39;;;;;;;8.98;5.15;;;11.60;99.90;;;;;;4847800;29;20406;-86
2022/10/09 09:08:13;;;;;;;9.45;4.78;;;11.70;99.90;;;;;;4879968;29;20041;-86
2022/10/09 09:10:59;;;;;;;9.00;5.00;;;11.70;99.90;;;;;;4879661;29;20052;-86
2022/10/09 09:14:21;;;;;;;9.00;4.43;;;11.90;99.90;;;;;;4878039;29;20053;-86
2022/10/09 09:17:01;;;;;;;11.50;4.80;;;12.00;99.90;;;;;;4844947;29;20056;-87
2022/10/09 09:20:06;;;;;;;7.70;4.25;;;12.10;99.90;;;;;;4831630;29;20049;-86
2022/10/09 09:22:33;;;;;;;7.65;4.30;;;12.20;99.90;;;;;;4866262;29;20492;-86
2022/10/09 09:25:14;;;;;;;7.82;3.80;;;12.30;99.90;;;;;;4895022;29;20040;-85
2022/10/09 09:27:40;;;;;;;9.57;3.83;;;12.50;99.90;;;;;;4877546;29;20043;-86
2022/10/09 09:30:09;;;;;;;6.55;3.50;;;12.50;99.90;;;;;;4897174;29;20044;-86
2022/10/09 09:32:38;;;;;;;7.82;3.47;;;12.50;99.90;;;;;;4860596;29;20046;-87
2022/10/09 09:35:34;;;;;;;7.47;3.80;;;12.60;99.90;;;;;;4892427;29;20048;-86
2022/10/09 09:38:02;;;;;;;9.32;3.45;;;12.80;99.90;;;;;;4851019;29;20373;-87
2022/10/09 09:40:33;;;;;;;6.25;3.40;;;12.90;99.90;;;;;;4895364;29;20037;-87
2022/10/09 09:43:00;;;;;;;7.47;3.58;;;12.90;99.90;;;;;;4866194;29;20044;-86
2022/10/09 09:45:27;;;;;;;6.90;3.33;;;13.00;99.90;;;;;;4878308;29;20110;-87
2022/10/09 09:48:05;;;;;;;9.45;3.13;;;13.10;99.90;;;;;;4866495;29;20088;-85
2022/10/09 09:50:38;;;;;;;8.60;3.20;;;13.20;99.90;;;;;;4879148;29;20048;-86
2022/10/09 09:53:07;;;;;;;7.72;3.72;;;13.20;99.90;;;;;;4895373;29;20443;-86
2022/10/09 09:55:33;;;;;;;7.97;2.60;;;13.30;99.90;;;;;;4865851;29;20036;-86
2022/10/09 09:58:07;;;;;;;7.65;3.33;;;13.40;99.90;;;;;;4851704;29;20509;-86
2022/10/09 10:00:34;;;;;;;5.45;2.33;;;13.40;99.90;;;;;;4864909;29;20215;-86
2022/10/09 10:03:18;;;;;;;8.07;2.80;;;13.60;99.90;;;;;;4880506;29;20056;-86
2022/10/09 10:05:44;;;;;;;11.05;3.22;;;13.60;99.90;;;;;;4853590;29;20320;-87
2022/10/09 10:08:22;;;;;;;9.00;3.50;;;13.60;99.90;;;;;;4867337;29;20041;-86
2022/10/09 10:10:54;;;;;;;11.05;2.80;;;13.70;99.90;;;;;;4887308;29;20040;-85
2022/10/09 10:13:42;;;;;;;6.80;2.67;;;13.80;99.90;;;;;;4879826;29;20057;-86
2022/10/09 10:16:08;;;;;;;8.52;3.00;;;13.90;99.90;;;;;;4833562;29;20065;-86
2022/10/09 10:18:40;;;;;;;6.82;2.38;;;13.90;99.90;;;;;;4882400;29;20389;-86
2022/10/09 10:21:15;;;;;;;7.28;2.40;;;14.00;1.00;;;;;;4878824;29;20468;-86
2022/10/09 10:24:02;;;;;;;6.97;2.47;;;14.00;99.90;;;;;;4880968;29;20052;-85
2022/10/09 10:27:17;;;;;;;8.55;2.45;;;14.10;99.90;;;;;;4881215;29;20056;-86
2022/10/09 10:29:45;;;;;;;7.03;2.80;;;14.30;1.00;;;;;;4808996;29;20057;-86
2022/10/09 10:32:20;;;;;;;9.40;2.47;;;14.30;99.90;;;;;;4786783;29;20462;-86
2022/10/09 10:35:13;;;;;;;11.90;2.85;;;14.30;80.80;;;;;;4842855;29;20062;-86
2022/10/09 10:38:06;;;;;;;6.80;2.10;;;14.30;1.00;;;;;;4883516;29;20055;-86
2022/10/09 10:40:40;;;;;;;8.80;2.67;;;14.50;99.90;;;;;;4851693;29;20496;-86
2022/10/09 10:43:09;;;;;;;6.00;2.00;;;14.60;1.00;;;;;;4872096;29;20080;-85
2022/10/09 10:45:47;;;;;;;6.13;1.77;;;14.70;1.00;;;;;;4869966;29;20063;-86
2022/10/09 10:48:22;;;;;;;7.60;2.13;;;14.80;1.00;;;;;;4870890;29;20124;-87
2022/10/09 10:50:58;;;;;;;5.32;2.17;;;14.70;99.90;;;;;;4888389;29;20036;-86
2022/10/09 10:53:35;;;;;;;5.35;2.13;;;14.80;99.90;;;;;;4851473;29;22106;-86
2022/10/09 10:56:09;;;;;;;6.57;2.08;;;14.90;99.90;;;;;;4881599;29;20606;-86
2022/10/09 10:58:58;;;;;;;9.90;2.20;;;14.90;1.00;;;;;;4854563;29;20151;-86
2022/10/09 11:01:36;;;;;;;5.03;2.17;;;14.90;1.00;;;;;;4847524;29;20049;-86
2022/10/09 11:04:39;;;;;;;7.40;2.63;;;15.00;99.90;;;;;;4855118;29;20041;-85
2022/10/09 11:07:11;;;;;;;8.45;2.08;;;14.90;1.00;;;;;;4882691;29;20041;-86
2022/10/09 11:09:56;;;;;;;8.23;2.53;;;15.10;99.90;;;;;;4881737;29;20571;-86
2022/10/09 11:12:41;;;;;;;5.38;2.10;;;15.20;1.00;;;;;;4884746;29;20052;-86
2022/10/09 11:15:29;;;;;;;7.00;2.22;;;15.30;99.90;;;;;;4882499;29;20053;-85
2022/10/09 11:17:58;;;;;;;3.33;1.63;;;15.30;1.00;;;;;;4857316;29;20046;-86
2022/10/09 11:20:51;;;;;;;4.40;1.90;;;15.20;99.90;;;;;;4886543;29;20078;-86
2022/10/09 11:23:42;;;;;;;6.22;1.95;;;15.10;99.90;;;;;;4869325;29;20064;-87
2022/10/09 11:26:42;;;;;;;4.63;1.67;;;15.50;99.90;;;;;;4870375;29;20116;-86
2022/10/09 11:29:40;;;;;;;8.60;1.85;;;15.60;99.90;;;;;;4881049;29;20052;-86
2022/10/09 11:32:32;;;;;;;8.15;1.80;;;15.70;1.00;;;;;;4814411;29;20061;-85
2022/10/09 11:35:43;;;;;;;5.13;1.63;;;15.90;99.90;;;;;;4882276;29;20052;-87
2022/10/09 11:38:31;;;;;;;5.13;1.60;;;15.80;99.90;;;;;;4883788;29;20530;-87
2022/10/09 11:40:57;;;;;;;6.80;1.58;;;16.00;99.90;;;;;;4872515;29;20099;-86
2022/10/09 11:43:27;;;;;;;4.90;1.30;;;16.00;1.00;;;;;;4882774;29;20067;-87
2022/10/09 11:46:08;;;;;;;7.22;1.73;;;16.20;99.90;;;;;;4871690;29;20056;-86
2022/10/09 11:48:54;;;;;;;5.70;1.92;;;16.20;1.00;;;;;;4881500;29;20124;-86
2022/10/09 11:51:36;;;;;;;5.00;1.77;;;16.10;99.90;;;;;;4865558;29;20055;-86
2022/10/09 11:54:09;;;;;;;6.05;1.98;;;16.10;7.00;;;;;;4885753;29;20083;-86
2022/10/09 11:56:35;;;;;;;4.05;1.95;;;16.20;99.90;;;;;;4881212;29;20097;-86
2022/10/09 11:59:04;;;;;;;9.77;2.30;;;16.30;99.90;;;;;;4883618;29;20393;-86
2022/10/09 12:01:32;;;;;;;5.05;1.60;;;16.20;99.90;;;;;;4884561;29;20068;-86
2022/10/09 12:04:12;;;;;;;5.13;1.55;;;16.30;1.00;;;;;;4884804;29;20539;-86
2022/10/09 12:06:53;;;;;;;4.88;1.88;;;16.60;1.00;;;;;;4896158;29;20037;-86
2022/10/09 12:09:42;;;;;;;7.00;2.15;;;16.80;1.00;;;;;;4868403;29;20051;-87
2022/10/09 12:12:21;;;;;;;5.00;1.60;;;16.70;99.90;;;;;;4851969;29;20178;-86
2022/10/09 12:14:49;;;;;;;7.88;2.22;;;16.70;16.50;;;;;;4878476;29;20072;-86
2022/10/09 12:17:21;;;;;;;6.70;1.90;;;16.80;99.90;;;;;;4880946;29;20269;-85
2022/10/09 12:19:51;;;;;;;7.43;1.95;;;17.00;1.00;;;;;;4864332;29;20100;-86
2022/10/09 12:22:26;;;;;;;8.25;2.05;;;16.80;99.90;;;;;;4852835;29;20048;-86
2022/10/09 12:24:56;;;;;;;;;;;17.00;99.90;;;;;;4867705;29;20041;-86
2022/10/09 12:27:29;;;;;;;5.68;1.95;;;16.80;99.90;;;;;;4865887;29;19919;-86
2022/10/09 12:30:14;;;;;;;4.95;1.75;;;17.00;93.30;;;;;;4879620;29;20055;-86
2022/10/09 12:32:44;;;;;;;8.15;1.80;;;16.80;99.90;;;;;;4883740;29;20079;-86
2022/10/09 12:35:34;;;;;;;6.45;1.80;;;16.80;1.00;;;;;;4867720;29;20527;-86
2022/10/09 12:38:00;;;;;;;6.05;2.10;;;17.20;99.90;;;;;;4866072;29;20049;-86
2022/10/09 12:40:32;;;;;;;5.22;1.83;;;17.40;1.00;;;;;;4894899;29;20512;-86
2022/10/09 12:42:59;;;;;;;6.47;2.28;;;16.90;99.90;;;;;;4868104;29;20100;-86
2022/10/09 12:45:29;;;;;;;5.60;1.88;;;17.20;1.00;;;;;;4869095;29;20045;-86
2022/10/09 12:47:58;;;;;;;5.82;2.08;;;17.30;99.90;;;;;;4861973;29;20109;-86
2022/10/09 12:50:30;;;;;;;5.88;1.80;;;17.40;99.90;;;;;;4895748;29;20569;-86
2022/10/09 12:53:18;;;;;;;7.20;2.17;;;17.80;1.00;;;;;;4882855;29;20033;-85
2022/10/09 12:55:46;;;;;;;5.93;2.03;;;17.80;99.90;;;;;;4896192;29;20493;-87
2022/10/09 12:58:20;;;;;;;4.22;2.03;;;17.80;99.90;;;;;;4880639;29;20044;-86
2022/10/09 13:01:01;;;;;;;5.55;2.45;;;17.80;99.90;;;;;;4851283;29;20068;-86
2022/10/09 13:04:03;;;;;;;5.60;2.40;;;18.00;99.90;;;;;;4865977;29;20083;-86
2022/10/09 13:06:47;;;;;;;6.45;2.20;;;17.90;99.90;;;;;;4832744;29;20061;-87
2022/10/09 13:09:37;;;;;;;5.18;2.50;;;18.10;99.90;;;;;;4865468;29;20526;-86